createdAt,value
2022-10-12T00:00:33.315Z,151061.00
2022-10-12T00:03:01.085Z,151062.31
2022-10-12T00:05:28.761Z,151046.88
2022-10-12T00:07:56.499Z,151055.88
2022-10-12T00:10:24.248Z,151040.44
2022-10-12T00:12:52.010Z,151067.44
2022-10-12T00:15:21.094Z,151086.69
2022-10-12T00:17:48.879Z,151086.69
2022-10-12T00:20:16.607Z,151080.28
2022-10-12T00:22:44.304Z,151070.03
2022-10-12T00:25:12.078Z,151070.03
2022-10-12T00:27:40.128Z,151070.03
2022-10-12T00:30:09.496Z,151043.00
2022-10-12T00:32:38.561Z,151066.13
2022-10-12T00:35:06.987Z,151067.44
2022-10-12T00:37:35.014Z,151076.44
2022-10-12T00:40:02.965Z,151001.88
2022-10-12T00:42:30.707Z,151068.72
2022-10-12T00:44:58.367Z,151064.88
2022-10-12T00:47:31.956Z,151058.47
2022-10-12T00:50:06.217Z,151058.47
2022-10-12T00:52:42.567Z,151061.00
2022-10-12T00:55:13.307Z,151045.56
2022-10-12T00:57:46.720Z,151054.56
2022-10-12T01:00:15.676Z,151070.03
2022-10-12T01:02:44.620Z,151052.00
2022-10-12T01:05:14.223Z,151016.03
2022-10-12T01:07:42.003Z,151037.84
2022-10-12T01:10:10.496Z,151036.59
2022-10-12T01:12:39.720Z,151016.03
2022-10-12T01:15:08.275Z,151040.44
2022-10-12T01:17:48.632Z,151030.16
2022-10-12T01:20:55.055Z,151034.00
2022-10-12T01:23:52.056Z,151026.28
2022-10-12T01:26:40.255Z,151003.16
2022-10-12T01:29:20.420Z,150981.31
2022-10-12T01:31:54.823Z,150981.31
2022-10-12T01:34:31.519Z,150968.44
2022-10-12T01:37:06.323Z,150940.22
2022-10-12T01:39:39.906Z,150945.31
2022-10-12T01:42:16.025Z,150960.78
2022-10-12T01:44:43.637Z,150924.75
2022-10-12T01:47:12.681Z,150893.91
2022-10-12T01:49:40.531Z,150902.94
2022-10-12T01:52:28.169Z,150891.38
2022-10-12T01:55:20.958Z,150895.22
2022-10-12T01:58:06.465Z,150888.81
2022-10-12T02:00:42.468Z,150875.94
2022-10-12T02:03:17.365Z,150866.94
2022-10-12T02:05:51.431Z,150868.25
2022-10-12T02:08:24.839Z,150878.50
2022-10-12T02:10:58.134Z,150860.53
2022-10-12T02:13:28.535Z,150856.69
2022-10-12T02:15:59.482Z,150850.25
2022-10-12T02:18:30.232Z,150857.97
2022-10-12T02:21:00.854Z,150851.56
2022-10-12T02:23:29.766Z,150842.56
2022-10-12T02:25:59.885Z,150842.56
2022-10-12T02:28:30.779Z,150834.84
2022-10-12T02:31:02.658Z,150845.13
2022-10-12T02:33:37.655Z,150834.84
2022-10-12T02:36:12.690Z,150816.88
2022-10-12T02:38:44.494Z,150825.84
2022-10-12T02:41:17.402Z,150832.25
2022-10-12T02:43:51.898Z,150829.69
2022-10-12T02:46:21.800Z,150820.72
2022-10-12T02:48:51.713Z,150833.53
2022-10-12T02:51:21.347Z,150816.88
2022-10-12T02:53:49.193Z,150833.53
2022-10-12T02:56:17.176Z,150802.72
2022-10-12T02:58:46.287Z,150834.84
2022-10-12T03:01:16.890Z,150837.41
2022-10-12T03:03:45.223Z,150831.00
2022-10-12T03:06:14.653Z,150806.56
2022-10-12T03:08:42.342Z,150831.00
2022-10-12T03:11:13.908Z,150831.00
2022-10-12T03:13:41.763Z,150798.84
2022-10-12T03:16:11.464Z,150806.56
2022-10-12T03:18:39.619Z,150819.44
2022-10-12T03:21:07.914Z,150800.16
2022-10-12T03:23:37.000Z,150771.91
2022-10-12T03:26:04.808Z,150793.75
2022-10-12T03:28:32.701Z,150774.47
2022-10-12T03:31:00.692Z,150747.50
2022-10-12T03:33:28.482Z,150770.63
2022-10-12T03:35:56.308Z,150778.31
2022-10-12T03:38:23.995Z,150746.19
2022-10-12T03:40:53.014Z,150759.06
2022-10-12T03:43:20.763Z,150721.81
2022-10-12T03:45:48.548Z,150750.03
2022-10-12T03:48:16.622Z,150725.66
2022-10-12T03:50:48.935Z,150680.69
2022-10-12T03:53:16.984Z,150732.06
2022-10-12T03:55:44.918Z,150733.38
2022-10-12T03:58:14.553Z,150712.84
2022-10-12T04:00:42.225Z,150701.28
2022-10-12T04:03:09.917Z,150708.97
2022-10-12T04:05:37.673Z,150680.69
2022-10-12T04:08:05.629Z,150696.16
2022-10-12T04:10:33.431Z,150678.13
2022-10-12T04:13:01.362Z,150647.34
2022-10-12T04:15:30.392Z,150671.72
2022-10-12T04:17:58.052Z,150680.69
2022-10-12T04:20:25.762Z,150692.25
2022-10-12T04:22:53.496Z,150705.13
2022-10-12T04:25:21.232Z,150679.44
2022-10-12T04:27:48.939Z,150671.72
2022-10-12T04:30:16.624Z,150674.28
2022-10-12T04:32:45.655Z,150687.16
2022-10-12T04:35:13.332Z,150687.16
2022-10-12T04:37:41.262Z,150683.28
2022-10-12T04:40:10.051Z,150689.72
2022-10-12T04:42:37.698Z,150706.38
2022-10-12T04:45:06.065Z,150707.69
2022-10-12T04:47:35.069Z,150723.09
2022-10-12T04:50:04.458Z,150728.25
2022-10-12T04:52:32.150Z,150755.19
2022-10-12T04:55:00.113Z,150738.47
2022-10-12T04:57:27.869Z,150742.38
2022-10-12T04:59:55.682Z,150750.03
2022-10-12T05:02:23.306Z,150764.16
2022-10-12T05:04:51.527Z,150752.63
2022-10-12T05:07:20.560Z,150784.75
2022-10-12T05:09:48.303Z,150770.63
2022-10-12T05:12:16.389Z,150793.75
2022-10-12T05:14:44.641Z,150789.88
2022-10-12T05:17:12.731Z,150800.16
2022-10-12T05:19:40.376Z,150787.28
2022-10-12T05:22:08.167Z,150770.63
2022-10-12T05:24:37.326Z,150796.31
2022-10-12T05:27:05.167Z,150795.00
2022-10-12T05:29:32.869Z,150795.00
2022-10-12T05:32:00.595Z,150796.31
2022-10-12T05:34:28.231Z,150802.72
2022-10-12T05:36:55.857Z,150795.00
2022-10-12T05:39:23.501Z,150796.31
2022-10-12T05:41:54.261Z,150780.88
2022-10-12T05:44:21.984Z,150791.19
2022-10-12T05:46:49.797Z,150725.66
2022-10-12T05:49:17.550Z,150784.75
2022-10-12T05:51:45.259Z,150755.19
2022-10-12T05:54:13.009Z,150755.19
2022-10-12T05:56:40.947Z,150770.63
2022-10-12T05:59:10.043Z,150760.34
2022-10-12T06:01:37.886Z,150780.88
2022-10-12T06:04:05.917Z,150774.47
2022-10-12T06:06:33.749Z,150768.06
2022-10-12T06:09:01.457Z,150789.88
2022-10-12T06:11:31.535Z,150768.06
2022-10-12T06:14:03.162Z,150743.63
2022-10-12T06:16:32.393Z,150711.53
2022-10-12T06:19:00.696Z,150760.34
2022-10-12T06:21:33.443Z,150751.34
2022-10-12T06:24:02.025Z,150746.19
2022-10-12T06:26:29.958Z,150730.81
2022-10-12T06:28:58.196Z,150744.94
2022-10-12T06:31:25.991Z,150720.50
2022-10-12T06:33:55.099Z,150741.06
2022-10-12T06:36:23.711Z,150750.03
2022-10-12T06:38:51.536Z,150764.16
2022-10-12T06:41:19.273Z,150762.91
2022-10-12T06:43:47.036Z,150820.72
2022-10-12T06:46:14.683Z,150832.25
2022-10-12T06:48:42.467Z,150841.25
2022-10-12T06:51:11.520Z,150893.91
2022-10-12T06:53:39.184Z,150940.22
2022-10-12T06:56:07.657Z,150992.91
2022-10-12T06:58:35.356Z,151073.88
2022-10-12T07:01:04.782Z,151097.00
2022-10-12T07:03:32.899Z,151196.00
2022-10-12T07:06:07.447Z,151256.47
2022-10-12T07:08:36.713Z,151315.66
2022-10-12T07:11:06.337Z,151364.53
2022-10-12T07:13:34.414Z,151394.13
2022-10-12T07:16:02.570Z,151410.88
2022-10-12T07:18:30.257Z,151428.88
2022-10-12T07:20:59.785Z,151434.03
2022-10-12T07:23:27.816Z,151450.78
2022-10-12T07:25:57.197Z,151511.28
2022-10-12T07:28:25.320Z,151574.38
2022-10-12T07:30:53.257Z,151621.97
2022-10-12T07:33:20.970Z,151640.00
2022-10-12T07:36:12.645Z,151665.75
2022-10-12T07:38:44.421Z,151673.50
2022-10-12T07:41:14.580Z,151696.69
2022-10-12T07:43:43.078Z,151714.75
2022-10-12T07:46:11.236Z,151793.34
2022-10-12T07:48:40.268Z,151887.44
2022-10-12T07:51:09.896Z,151985.38
2022-10-12T07:53:38.731Z,152030.53
2022-10-12T07:56:09.498Z,152125.94
2022-10-12T07:58:38.622Z,152211.06
2022-10-12T08:01:07.074Z,152289.75
2022-10-12T08:03:34.962Z,152363.38
2022-10-12T08:06:10.557Z,152443.38
2022-10-12T08:08:38.281Z,152511.81
2022-10-12T08:11:07.457Z,152587.97
2022-10-12T08:13:35.913Z,152671.94
2022-10-12T08:16:06.566Z,152752.06
2022-10-12T08:18:34.354Z,152829.63
2022-10-12T08:21:04.551Z,152877.44
2022-10-12T08:23:32.220Z,152903.28
2022-10-12T08:25:59.951Z,152926.56
2022-10-12T08:28:27.841Z,152947.22
2022-10-12T08:30:55.787Z,152987.31
2022-10-12T08:33:25.098Z,152908.47
2022-10-12T08:35:52.856Z,152883.94
2022-10-12T08:38:20.630Z,152951.16
2022-10-12T08:40:53.360Z,152971.81
2022-10-12T08:43:31.735Z,153030.00
2022-10-12T08:46:02.698Z,153092.06
2022-10-12T08:48:36.117Z,153133.47
2022-10-12T08:51:08.432Z,153180.03
2022-10-12T08:53:48.874Z,153216.28
2022-10-12T08:56:18.219Z,153274.50
2022-10-12T08:58:47.264Z,153295.19
2022-10-12T09:01:22.526Z,153305.56
2022-10-12T09:04:02.288Z,153349.56
2022-10-12T09:06:34.821Z,153353.47
2022-10-12T09:09:11.116Z,153371.59
2022-10-12T09:11:49.975Z,153427.22
2022-10-12T09:14:23.242Z,153339.22
2022-10-12T09:16:52.492Z,153393.56
2022-10-12T09:19:24.418Z,153344.38
2022-10-12T09:21:52.176Z,153321.06
2022-10-12T09:24:23.494Z,153319.81
2022-10-12T09:26:53.341Z,153393.56
2022-10-12T09:29:25.335Z,153453.13
2022-10-12T09:32:14.534Z,153512.66
2022-10-12T09:34:45.058Z,153546.34
2022-10-12T09:38:51.182Z,153507.50
2022-10-12T09:46:49.887Z,153490.66
2022-10-12T09:48:57.628Z,153583.94
2022-10-12T09:51:27.330Z,153625.38
2022-10-12T09:53:58.760Z,153416.84
2022-10-12T09:56:30.713Z,153494.53
2022-10-12T09:59:02.069Z,153596.88
2022-10-12T10:01:31.299Z,153587.81
2022-10-12T10:04:11.332Z,153661.66
2022-10-12T10:06:43.154Z,153761.38
2022-10-12T10:09:28.491Z,153778.25
2022-10-12T10:11:56.898Z,153568.41
2022-10-12T10:14:24.780Z,153473.84
2022-10-12T10:16:54.705Z,153609.84
2022-10-12T10:19:26.450Z,153700.50
2022-10-12T10:21:56.333Z,153650.00
2022-10-12T10:24:28.485Z,153683.66
2022-10-12T10:26:58.796Z,153754.94
2022-10-12T10:29:36.844Z,153821.03
2022-10-12T10:32:24.179Z,153907.91
2022-10-12T10:35:18.420Z,153870.25
2022-10-12T10:37:50.476Z,153932.50
2022-10-12T10:40:21.687Z,154032.31
2022-10-12T10:42:52.537Z,154072.53
2022-10-12T10:45:26.364Z,154067.31
2022-10-12T10:48:01.333Z,153959.72
2022-10-12T10:50:35.348Z,153967.50
2022-10-12T10:53:08.355Z,153922.13
2022-10-12T10:55:46.016Z,153905.31
2022-10-12T10:58:23.479Z,153924.72
2022-10-12T11:00:54.381Z,154021.97
2022-10-12T11:03:27.360Z,154062.16
2022-10-12T11:05:58.049Z,154064.78
2022-10-12T11:08:30.830Z,154046.59
2022-10-12T11:11:02.792Z,153944.19
2022-10-12T11:13:35.204Z,154007.69
2022-10-12T11:16:09.287Z,153973.97
2022-10-12T11:18:41.943Z,153972.69
2022-10-12T11:21:13.765Z,154056.97
2022-10-12T11:23:48.930Z,154142.53
2022-10-12T11:26:25.416Z,154124.41
2022-10-12T11:28:54.551Z,153950.66
2022-10-12T11:31:25.222Z,153959.72
2022-10-12T11:33:55.096Z,154028.44
2022-10-12T11:36:27.154Z,154108.84
2022-10-12T11:39:04.416Z,154242.50
2022-10-12T11:42:03.142Z,154204.88
2022-10-12T11:44:41.024Z,154168.47
2022-10-12T11:47:16.052Z,154248.97
2022-10-12T11:49:52.020Z,154190.59
2022-10-12T11:52:27.836Z,154235.97
2022-10-12T11:55:05.644Z,154235.97
2022-10-12T11:57:37.881Z,154202.28
2022-10-12T12:00:08.408Z,154294.41
2022-10-12T12:02:41.706Z,154339.78
2022-10-12T12:05:16.565Z,154357.94
2022-10-12T12:07:49.789Z,154344.97
2022-10-12T12:10:54.555Z,154409.84
2022-10-12T12:13:27.125Z,154363.13
2022-10-12T12:16:32.633Z,154324.22
2022-10-12T12:19:37.147Z,154171.09
2022-10-12T12:22:28.719Z,154141.25
2022-10-12T12:25:31.670Z,154180.19
2022-10-12T12:28:07.793Z,154167.22
2022-10-12T12:30:38.989Z,154238.56
2022-10-12T12:33:27.920Z,154281.41
2022-10-12T12:35:57.999Z,154342.38
2022-10-12T12:38:28.702Z,154338.50
2022-10-12T12:41:02.951Z,154278.78
2022-10-12T12:43:54.834Z,154303.47
2022-10-12T12:46:24.002Z,154247.66
2022-10-12T12:49:24.229Z,154207.47
2022-10-12T12:51:55.041Z,154200.94
2022-10-12T12:54:23.863Z,154299.53
2022-10-12T12:57:13.137Z,154251.56
2022-10-12T13:00:13.308Z,154138.66
2022-10-12T13:03:23.187Z,154217.81
2022-10-12T13:06:21.673Z,154059.56
2022-10-12T13:09:31.225Z,154156.81
2022-10-12T13:12:40.105Z,154067.31
2022-10-12T13:15:35.251Z,154012.91
2022-10-12T13:18:48.071Z,154014.16
2022-10-12T13:21:19.866Z,154108.84
2022-10-12T13:23:50.212Z,154167.22
2022-10-12T13:26:23.034Z,154293.06
2022-10-12T13:28:53.455Z,154238.56
2022-10-12T13:31:27.082Z,154178.94
2022-10-12T13:34:00.775Z,154185.41
2022-10-12T13:36:31.154Z,154149.06
2022-10-12T13:39:00.274Z,154127.00
2022-10-12T13:41:30.481Z,154182.81
2022-10-12T13:43:59.950Z,154103.66
2022-10-12T13:46:41.534Z,154075.13
2022-10-12T13:49:17.759Z,154173.69
2022-10-12T13:51:47.559Z,154224.28
2022-10-12T13:54:17.142Z,154278.78
2022-10-12T13:56:46.001Z,154258.03
2022-10-12T13:59:19.099Z,154363.13
2022-10-12T14:01:53.989Z,154321.63
2022-10-12T14:04:21.764Z,154188.00
2022-10-12T14:06:56.724Z,154191.88
2022-10-12T14:09:26.748Z,154154.22
2022-10-12T14:11:56.711Z,154184.13
2022-10-12T14:14:32.842Z,154277.53
2022-10-12T14:17:02.267Z,154182.81
2022-10-12T14:19:37.077Z,154246.38
2022-10-12T14:22:05.222Z,154274.91
2022-10-12T14:24:35.318Z,154265.84
2022-10-12T14:27:05.039Z,154226.91
2022-10-12T14:29:36.772Z,154274.91
2022-10-12T14:32:07.944Z,154245.09
2022-10-12T14:34:39.085Z,154169.81
2022-10-12T14:37:20.277Z,154210.06
2022-10-12T14:39:49.883Z,154239.91
2022-10-12T14:42:21.966Z,154235.97
2022-10-12T14:44:50.231Z,154108.84
2022-10-12T14:47:23.079Z,154139.94
2022-10-12T14:49:53.059Z,154145.13
2022-10-12T14:52:24.328Z,154134.78
2022-10-12T14:54:52.823Z,154111.44
2022-10-12T14:57:21.406Z,154029.72
2022-10-12T14:59:49.116Z,154051.78
2022-10-12T15:02:20.510Z,154059.56
2022-10-12T15:04:49.064Z,154036.25
2022-10-12T15:07:19.758Z,154002.50
2022-10-12T15:09:48.294Z,154025.84
2022-10-12T15:12:17.955Z,153988.25
2022-10-12T15:14:46.379Z,153937.72
2022-10-12T15:17:18.157Z,153919.56
2022-10-12T15:19:50.904Z,153900.13
2022-10-12T15:22:20.551Z,153887.13
2022-10-12T15:24:49.080Z,153893.66
2022-10-12T15:27:16.888Z,153881.94
2022-10-12T15:29:45.704Z,153903.97
2022-10-12T15:32:14.845Z,153915.66
2022-10-12T15:34:42.956Z,153919.56
2022-10-12T15:37:12.257Z,153927.31
2022-10-12T15:39:41.011Z,153875.41
2022-10-12T15:42:08.711Z,153878.00
2022-10-12T15:44:40.663Z,153843.03
2022-10-12T15:47:10.039Z,153805.44
2022-10-12T15:49:38.017Z,153796.38
2022-10-12T15:52:10.048Z,153805.44
2022-10-12T15:54:39.101Z,153764.00
2022-10-12T15:57:07.341Z,153774.38
2022-10-12T15:59:35.224Z,153749.72
2022-10-12T16:02:03.118Z,153758.78
2022-10-12T16:04:30.748Z,153767.84
2022-10-12T16:07:01.304Z,153743.28
2022-10-12T16:09:29.044Z,153734.22
2022-10-12T16:11:58.095Z,153688.84
2022-10-12T16:14:25.937Z,153683.66
2022-10-12T16:16:53.699Z,153605.97
2022-10-12T16:19:21.356Z,153551.53
2022-10-12T16:21:49.094Z,153559.25
2022-10-12T16:24:16.843Z,153488.06
2022-10-12T16:26:47.191Z,153476.41
2022-10-12T16:29:16.421Z,153473.84
2022-10-12T16:31:44.062Z,153473.84
2022-10-12T16:34:11.788Z,153442.75
2022-10-12T16:36:39.717Z,153353.47
2022-10-12T16:39:07.403Z,153312.03
2022-10-12T16:41:35.111Z,153287.47
2022-10-12T16:44:04.345Z,153253.81
2022-10-12T16:46:33.371Z,153308.16
2022-10-12T16:49:01.110Z,153266.78
2022-10-12T16:51:28.783Z,153231.84
2022-10-12T16:53:57.432Z,153239.56
2022-10-12T16:56:25.115Z,153227.94
2022-10-12T16:58:52.767Z,153217.59
2022-10-12T17:01:20.618Z,153181.31
2022-10-12T17:03:49.769Z,153150.25
2022-10-12T17:06:17.462Z,153102.41
2022-10-12T17:08:45.147Z,153090.78
2022-10-12T17:11:16.344Z,153053.28
2022-10-12T17:13:48.790Z,153068.78
2022-10-12T17:16:34.741Z,153022.22
2022-10-12T17:19:04.527Z,152993.78
2022-10-12T17:21:32.403Z,152989.91
2022-10-12T17:24:01.249Z,152962.78
2022-10-12T17:26:29.078Z,152978.28
2022-10-12T17:28:56.768Z,152952.41
2022-10-12T17:31:24.563Z,152947.22
2022-10-12T17:33:52.282Z,152902.03
2022-10-12T17:36:25.703Z,152851.59
2022-10-12T17:38:56.647Z,152819.28
2022-10-12T17:41:24.351Z,152786.94
2022-10-12T17:43:52.099Z,152772.72
2022-10-12T17:46:22.568Z,152758.50
2022-10-12T17:48:50.735Z,152733.97
2022-10-12T17:51:18.473Z,152691.31
2022-10-12T17:53:47.552Z,152684.88
2022-10-12T17:56:17.982Z,152670.66
2022-10-12T17:58:45.634Z,152679.72
2022-10-12T18:01:15.482Z,152666.81
2022-10-12T18:03:46.494Z,152653.88
2022-10-12T18:06:16.367Z,152628.03
2022-10-12T18:08:44.662Z,152638.38
2022-10-12T18:11:15.762Z,152630.63
2022-10-12T18:13:47.949Z,152609.97
2022-10-12T18:16:17.389Z,152555.72
2022-10-12T18:18:45.291Z,152586.72
2022-10-12T18:21:14.434Z,152581.53
2022-10-12T18:23:42.338Z,152593.16
2022-10-12T18:26:13.893Z,152589.31
2022-10-12T18:28:42.500Z,152582.84
2022-10-12T18:31:17.201Z,152553.13
2022-10-12T18:33:45.069Z,152532.47
2022-10-12T18:36:13.607Z,152532.47
2022-10-12T18:38:41.612Z,152493.75
2022-10-12T18:41:11.683Z,152460.16
2022-10-12T18:43:41.366Z,152436.94
2022-10-12T18:46:11.231Z,152421.47
2022-10-12T18:48:39.561Z,152387.88
2022-10-12T18:51:09.369Z,152387.88
2022-10-12T18:53:37.107Z,152355.63
2022-10-12T18:56:05.676Z,152345.28
2022-10-12T18:58:33.561Z,152302.69
2022-10-12T19:01:02.714Z,152307.81
2022-10-12T19:03:30.313Z,152263.94
2022-10-12T19:06:05.376Z,152243.31
2022-10-12T19:08:33.157Z,152263.94
2022-10-12T19:11:00.850Z,152253.66
2022-10-12T19:13:28.592Z,152221.41
2022-10-12T19:15:56.591Z,152212.31
2022-10-12T19:18:25.864Z,152212.31
2022-10-12T19:20:53.656Z,152182.66
2022-10-12T19:23:21.382Z,152191.69
2022-10-12T19:25:49.242Z,152220.09
2022-10-12T19:28:17.142Z,152200.72
2022-10-12T19:30:44.907Z,152165.91
2022-10-12T19:33:12.660Z,152171.06
2022-10-12T19:35:41.877Z,152129.81
2022-10-12T19:38:09.508Z,152134.97
2022-10-12T19:40:37.949Z,152120.78
2022-10-12T19:43:06.829Z,152105.28
2022-10-12T19:45:39.247Z,152094.97
2022-10-12T19:48:07.793Z,152087.22
2022-10-12T19:50:36.357Z,152115.63
2022-10-12T19:53:05.600Z,152122.06
2022-10-12T19:55:34.092Z,152087.22
2022-10-12T19:58:02.460Z,152088.56
2022-10-12T20:00:30.225Z,152056.28
2022-10-12T20:02:58.075Z,152055.00
2022-10-12T20:05:25.802Z,152012.44
2022-10-12T20:07:53.584Z,152004.75
2022-10-12T20:10:22.721Z,151971.19
2022-10-12T20:12:50.455Z,152008.59
2022-10-12T20:15:18.092Z,152002.16
2022-10-12T20:17:45.862Z,151990.56
2022-10-12T20:20:13.653Z,152007.31
2022-10-12T20:22:42.310Z,152006.00
2022-10-12T20:25:10.159Z,152013.75
2022-10-12T20:27:39.486Z,151964.75
2022-10-12T20:30:08.213Z,152002.16
2022-10-12T20:32:36.015Z,151999.56
2022-10-12T20:35:04.273Z,152002.16
2022-10-12T20:37:33.043Z,151995.66
2022-10-12T20:40:00.832Z,151946.72
2022-10-12T20:42:28.685Z,152000.84
2022-10-12T20:44:58.161Z,151997.00
2022-10-12T20:47:26.989Z,151986.66
2022-10-12T20:49:54.833Z,151962.19
2022-10-12T20:52:22.735Z,151953.16
2022-10-12T20:54:51.933Z,151948.00
2022-10-12T20:57:19.733Z,151922.22
2022-10-12T20:59:48.980Z,151919.63
2022-10-12T21:02:18.785Z,151929.97
2022-10-12T21:04:49.159Z,151928.66
2022-10-12T21:07:17.900Z,151910.63
2022-10-12T21:09:45.891Z,151900.28
2022-10-12T21:12:13.544Z,151883.56
2022-10-12T21:14:41.266Z,151852.63
2022-10-12T21:17:09.111Z,151843.63
2022-10-12T21:19:38.226Z,151821.69
2022-10-12T21:22:05.990Z,151808.81
2022-10-12T21:24:33.733Z,151802.41
2022-10-12T21:27:01.471Z,151816.53
2022-10-12T21:29:29.207Z,151786.91
2022-10-12T21:31:56.893Z,151784.31
2022-10-12T21:34:24.694Z,151799.81
2022-10-12T21:36:53.840Z,151807.50
2022-10-12T21:39:21.597Z,151770.16
2022-10-12T21:41:49.279Z,151755.97
2022-10-12T21:44:16.899Z,151774.03
2022-10-12T21:46:44.515Z,151762.44
2022-10-12T21:49:12.883Z,151771.47
2022-10-12T21:51:40.883Z,151752.13
2022-10-12T21:54:09.999Z,151768.88
2022-10-12T21:56:38.113Z,151736.69
2022-10-12T21:59:06.583Z,151722.50
2022-10-12T22:01:36.633Z,151721.19
2022-10-12T22:04:06.480Z,151713.44
2022-10-12T22:06:35.623Z,151723.78
2022-10-12T22:09:06.070Z,151716.06
2022-10-12T22:11:36.560Z,151721.19
2022-10-12T22:14:06.683Z,151727.66
2022-10-12T22:16:34.520Z,151723.78
2022-10-12T22:19:04.660Z,151691.53
2022-10-12T22:21:32.628Z,151688.94
2022-10-12T22:24:02.012Z,151731.50
2022-10-12T22:26:30.455Z,151704.44
2022-10-12T22:29:00.811Z,151735.38
2022-10-12T22:31:29.017Z,151719.91
2022-10-12T22:33:57.319Z,151723.78
2022-10-12T22:36:25.022Z,151719.91
2022-10-12T22:38:52.837Z,151670.94
2022-10-12T22:41:22.604Z,151719.91
2022-10-12T22:43:51.515Z,151707.00
2022-10-12T22:46:22.643Z,151741.84
2022-10-12T22:48:50.630Z,151745.69
2022-10-12T22:51:21.535Z,151746.97
2022-10-12T22:53:49.963Z,151727.66
2022-10-12T22:56:19.431Z,151785.63
2022-10-12T22:58:48.956Z,151772.72
2022-10-12T23:01:18.471Z,151797.22
2022-10-12T23:03:47.541Z,151817.84
2022-10-12T23:06:16.699Z,151837.19
2022-10-12T23:08:44.812Z,151857.78
2022-10-12T23:11:14.744Z,151879.69
2022-10-12T23:13:43.279Z,151913.19
2022-10-12T23:16:13.223Z,151926.06
2022-10-12T23:18:41.854Z,151985.38
2022-10-12T23:21:12.771Z,152008.59
2022-10-12T23:23:41.832Z,152094.97
2022-10-12T23:26:11.623Z,152107.84
2022-10-12T23:28:39.710Z,152061.44
2022-10-12T23:31:09.003Z,152100.16
2022-10-12T23:33:36.725Z,152105.28
2022-10-12T23:36:06.711Z,152124.63
2022-10-12T23:38:38.020Z,152153.03
2022-10-12T23:41:06.204Z,152191.69
2022-10-12T23:43:34.650Z,152200.72
2022-10-12T23:46:02.718Z,152252.31
2022-10-12T23:48:30.855Z,152291.06
2022-10-12T23:50:58.703Z,152340.16
2022-10-12T23:53:26.791Z,152364.66
2022-10-12T23:55:55.918Z,152367.25
2022-10-12T23:58:23.891Z,152371.09
